createdAt,value
2023-04-12T00:02:17.614Z,8.52
2023-04-12T00:04:44.615Z,8.35
2023-04-12T00:07:12.184Z,8.70
2023-04-12T00:09:39.380Z,8.55
2023-04-12T00:12:06.476Z,8.35
2023-04-12T00:14:33.050Z,9.05
2023-04-12T00:16:59.894Z,10.15
2023-04-12T00:19:27.739Z,10.32
2023-04-12T00:21:54.643Z,9.02
2023-04-12T00:24:21.242Z,8.98
2023-04-12T00:26:47.848Z,8.70
2023-04-12T00:29:16.337Z,9.30
2023-04-12T00:31:42.979Z,9.82
2023-04-12T00:34:09.639Z,8.75
2023-04-12T00:36:36.272Z,7.40
2023-04-12T00:39:03.045Z,7.63
2023-04-12T00:41:29.587Z,8.38
2023-04-12T00:43:56.582Z,7.85
2023-04-12T00:46:23.571Z,7.97
2023-04-12T00:48:50.669Z,8.27
2023-04-12T00:51:18.365Z,8.35
2023-04-12T00:53:45.358Z,9.13
2023-04-12T00:56:12.160Z,8.50
2023-04-12T00:58:38.863Z,10.90
2023-04-12T01:01:05.893Z,8.77
2023-04-12T01:03:32.788Z,8.88
2023-04-12T01:05:59.475Z,11.98
2023-04-12T01:08:40.498Z,9.05
2023-04-12T01:11:31.289Z,8.93
2023-04-12T01:14:31.828Z,8.68
2023-04-12T01:17:02.761Z,9.48
2023-04-12T01:19:34.985Z,9.07
2023-04-12T01:22:23.676Z,8.13
2023-04-12T01:25:12.411Z,9.18
2023-04-12T01:27:53.169Z,9.55
2023-04-12T01:30:21.063Z,9.13
2023-04-12T01:32:51.537Z,8.60
2023-04-12T01:35:21.302Z,9.98
2023-04-12T01:37:48.219Z,9.73
2023-04-12T01:40:15.401Z,9.88
2023-04-12T01:42:42.029Z,12.35
2023-04-12T01:45:09.117Z,9.70
2023-04-12T01:47:36.105Z,9.48
2023-04-12T01:50:15.726Z,9.93
2023-04-12T01:52:54.194Z,9.45
2023-04-12T01:55:22.822Z,10.05
2023-04-12T01:57:51.100Z,10.13
2023-04-12T02:00:19.138Z,10.73
2023-04-12T02:02:45.930Z,9.30
2023-04-12T02:05:13.007Z,11.20
2023-04-12T02:07:41.036Z,10.35
2023-04-12T02:10:07.856Z,11.77
2023-04-12T02:12:34.472Z,11.82
2023-04-12T02:15:01.113Z,10.57
2023-04-12T02:17:29.899Z,10.52
2023-04-12T02:19:57.812Z,10.75
2023-04-12T02:22:24.357Z,12.35
2023-04-12T02:24:51.103Z,11.98
2023-04-12T02:27:18.933Z,13.63
2023-04-12T02:29:45.921Z,11.68
2023-04-12T02:32:13.037Z,13.13
2023-04-12T02:34:39.878Z,11.35
2023-04-12T02:37:07.334Z,13.85
2023-04-12T02:39:34.521Z,13.02
2023-04-12T02:42:01.658Z,12.80
2023-04-12T02:44:31.510Z,15.48
2023-04-12T02:46:58.165Z,16.70
2023-04-12T02:49:24.685Z,17.13
2023-04-12T02:51:51.461Z,19.80
2023-04-12T02:54:18.057Z,18.83
2023-04-12T02:56:44.905Z,15.18
2023-04-12T02:59:11.452Z,13.35
2023-04-12T03:01:39.436Z,17.80
2023-04-12T03:04:06.532Z,13.45
2023-04-12T03:06:33.216Z,17.88
2023-04-12T03:09:00.574Z,14.70
2023-04-12T03:11:27.250Z,15.00
2023-04-12T03:13:53.940Z,12.40
2023-04-12T03:16:29.748Z,12.32
2023-04-12T03:18:56.854Z,15.20
2023-04-12T03:21:23.437Z,13.45
2023-04-12T03:23:50.042Z,17.00
2023-04-12T03:26:20.507Z,15.63
2023-04-12T03:28:48.216Z,16.52
2023-04-12T03:31:15.454Z,17.20
2023-04-12T03:33:42.190Z,19.95
2023-04-12T03:36:09.872Z,23.00
2023-04-12T03:38:36.469Z,15.95
2023-04-12T03:41:03.147Z,18.23
2023-04-12T03:43:35.849Z,14.93
2023-04-12T03:46:04.020Z,20.15
2023-04-12T03:48:31.253Z,16.98
2023-04-12T03:50:59.846Z,15.30
2023-04-12T03:53:31.686Z,16.38
2023-04-12T03:55:58.587Z,15.70
2023-04-12T03:58:26.452Z,14.35
2023-04-12T04:00:53.271Z,16.77
2023-04-12T04:03:20.246Z,17.80
2023-04-12T04:05:46.936Z,17.25
2023-04-12T04:08:13.796Z,18.23
2023-04-12T04:10:40.613Z,16.60
2023-04-12T04:13:07.186Z,19.98
2023-04-12T04:15:33.772Z,16.77
2023-04-12T04:18:00.437Z,20.42
2023-04-12T04:20:28.000Z,23.30
2023-04-12T04:22:54.719Z,23.55
2023-04-12T04:25:22.015Z,19.55
2023-04-12T04:27:49.632Z,15.30
2023-04-12T04:30:17.017Z,21.65
2023-04-12T04:32:43.845Z,18.48
2023-04-12T04:35:10.490Z,23.02
2023-04-12T04:37:37.210Z,18.05
2023-04-12T04:40:11.737Z,20.38
2023-04-12T04:42:39.768Z,19.35
2023-04-12T04:45:13.734Z,19.50
2023-04-12T04:47:41.291Z,18.92
2023-04-12T04:50:08.573Z,20.45
2023-04-12T04:52:35.180Z,15.48
2023-04-12T04:55:03.353Z,17.60
2023-04-12T04:57:31.596Z,16.35
2023-04-12T04:59:58.176Z,14.95
2023-04-12T05:02:26.257Z,12.95
2023-04-12T05:04:56.303Z,17.23
2023-04-12T05:07:23.756Z,13.60
2023-04-12T05:09:50.356Z,12.95
2023-04-12T05:12:16.991Z,12.15
2023-04-12T05:14:49.671Z,9.52
2023-04-12T05:17:18.966Z,13.77
2023-04-12T05:19:45.516Z,14.20
2023-04-12T05:22:14.017Z,9.85
2023-04-12T05:24:41.046Z,13.40
2023-04-12T05:27:07.629Z,7.13
2023-04-12T05:29:34.166Z,7.05
2023-04-12T05:32:04.232Z,7.28
2023-04-12T05:34:30.846Z,7.30
2023-04-12T05:36:59.656Z,6.63
2023-04-12T05:39:27.434Z,6.63
2023-04-12T05:41:54.088Z,5.25
2023-04-12T05:44:20.780Z,7.57
2023-04-12T05:46:47.648Z,7.53
2023-04-12T05:49:14.257Z,11.02
2023-04-12T05:51:41.799Z,5.68
2023-04-12T05:54:09.199Z,6.57
2023-04-12T05:56:36.179Z,6.47
2023-04-12T05:59:02.886Z,5.10
2023-04-12T06:01:33.100Z,7.10
2023-04-12T06:04:02.528Z,6.47
2023-04-12T06:06:30.418Z,3.40
2023-04-12T06:09:00.692Z,5.80
2023-04-12T06:11:27.707Z,4.03
2023-04-12T06:13:54.399Z,4.15
2023-04-12T06:16:21.235Z,9.70
2023-04-12T06:18:48.013Z,6.35
2023-04-12T06:21:14.617Z,5.97
2023-04-12T06:23:41.229Z,4.03
2023-04-12T06:26:07.976Z,6.05
2023-04-12T06:28:34.650Z,23.02
2023-04-12T06:31:01.329Z,9.88
2023-04-12T06:33:27.975Z,3.97
2023-04-12T06:35:54.580Z,3.70
2023-04-12T06:38:21.284Z,2.65
2023-04-12T06:40:48.418Z,2.17
2023-04-12T06:43:22.534Z,3.00
2023-04-12T06:45:52.079Z,2.83
2023-04-12T06:48:19.092Z,1.88
2023-04-12T06:50:45.940Z,3.58
2023-04-12T06:53:15.606Z,4.00
2023-04-12T06:55:42.453Z,4.70
2023-04-12T06:58:09.336Z,1.25
2023-04-12T07:00:36.391Z,3.17
2023-04-12T07:03:03.098Z,1.73
2023-04-12T07:05:29.812Z,2.85
2023-04-12T07:07:56.401Z,4.43
2023-04-12T07:10:24.691Z,1.17
2023-04-12T07:12:52.046Z,1.20
2023-04-12T07:15:19.022Z,0.75
2023-04-12T07:17:45.654Z,1.88
2023-04-12T07:20:12.429Z,1.17
2023-04-12T07:22:39.125Z,1.50
2023-04-12T07:25:10.235Z,1.30
2023-04-12T07:27:37.139Z,2.35
2023-04-12T07:30:04.512Z,1.85
2023-04-12T07:32:31.436Z,4.65
2023-04-12T07:34:58.153Z,28.00
2023-04-12T07:37:24.817Z,17.42
2023-04-12T07:39:51.657Z,2.30
2023-04-12T07:42:18.264Z,2.20
2023-04-12T07:44:44.909Z,2.15
2023-04-12T07:47:11.458Z,8.60
2023-04-12T07:49:38.009Z,2.72
2023-04-12T07:52:05.026Z,1.67
2023-04-12T07:54:31.669Z,2.78
2023-04-12T07:57:03.504Z,1.85
2023-04-12T07:59:31.952Z,2.28
2023-04-12T08:01:58.565Z,1.30
2023-04-12T08:04:25.314Z,1.73
2023-04-12T08:06:52.223Z,0.60
2023-04-12T08:09:18.787Z,0.88
2023-04-12T08:11:45.738Z,4.35
2023-04-12T08:14:12.424Z,0.63
2023-04-12T08:16:39.072Z,0.52
2023-04-12T08:19:05.612Z,1.45
2023-04-12T08:21:32.688Z,0.40
2023-04-12T08:23:59.849Z,0.40
2023-04-12T08:26:26.980Z,1.02
2023-04-12T08:28:53.556Z,1.45
2023-04-12T08:31:20.327Z,0.40
2023-04-12T08:33:46.957Z,1.98
2023-04-12T08:36:14.099Z,0.35
2023-04-12T08:38:46.136Z,2.53
2023-04-12T08:41:14.215Z,1.13
2023-04-12T08:43:46.130Z,1.02
2023-04-12T08:46:16.992Z,2.38
2023-04-12T08:48:48.618Z,0.73
2023-04-12T08:51:20.468Z,0.68
2023-04-12T08:53:47.940Z,1.25
2023-04-12T08:56:16.361Z,0.40
2023-04-12T08:58:48.876Z,0.45
2023-04-12T09:01:16.924Z,3.05
2023-04-12T09:03:45.024Z,0.47
2023-04-12T09:06:13.170Z,1.05
2023-04-12T09:08:54.300Z,0.75
2023-04-12T09:11:26.320Z,0.52
2023-04-12T09:13:54.812Z,1.55
2023-04-12T09:16:41.439Z,2.53
2023-04-12T09:19:09.504Z,1.85
2023-04-12T09:21:37.371Z,2.75
2023-04-12T09:24:14.195Z,2.88
2023-04-12T09:26:41.822Z,4.03
2023-04-12T09:29:24.472Z,2.72
2023-04-12T09:32:04.897Z,1.42
2023-04-12T09:34:32.996Z,0.30
2023-04-12T09:36:59.772Z,0.30
2023-04-12T09:39:38.749Z,0.20
2023-04-12T09:42:25.682Z,0.60
2023-04-12T09:44:59.225Z,0.20
2023-04-12T09:47:39.913Z,0.35
2023-04-12T09:50:08.425Z,0.40
2023-04-12T09:52:39.265Z,2.63
2023-04-12T09:55:10.960Z,0.20
2023-04-12T09:57:41.002Z,0.40
2023-04-12T10:00:13.273Z,9.82
2023-04-12T10:02:46.751Z,9.70
2023-04-12T10:05:17.120Z,0.80
2023-04-12T10:07:45.242Z,1.20
2023-04-12T10:10:13.100Z,2.45
2023-04-12T10:12:41.565Z,3.35
2023-04-12T10:15:21.172Z,0.68
2023-04-12T10:17:55.015Z,0.80
2023-04-12T10:20:24.706Z,0.38
2023-04-12T10:22:53.640Z,0.30
2023-04-12T10:25:25.355Z,1.80
2023-04-12T10:27:52.011Z,0.20
2023-04-12T10:30:23.736Z,2.85
2023-04-12T10:33:10.412Z,0.77
2023-04-12T10:36:08.835Z,0.10
2023-04-12T10:38:48.119Z,0.28
2023-04-12T10:41:18.829Z,1.58
2023-04-12T10:43:50.272Z,1.15
2023-04-12T10:46:36.670Z,0.20
2023-04-12T10:49:13.984Z,1.02
2023-04-12T10:52:01.333Z,1.23
2023-04-12T10:54:35.781Z,0.50
2023-04-12T10:57:04.658Z,0.17
2023-04-12T10:59:56.294Z,0.55
2023-04-12T11:02:23.496Z,35.78
2023-04-12T11:05:11.208Z,63.67
2023-04-12T11:07:42.737Z,40.55
2023-04-12T11:10:18.999Z,77.57
2023-04-12T11:12:50.659Z,2.05
2023-04-12T11:15:18.081Z,3.40
2023-04-12T11:17:54.509Z,0.45
2023-04-12T11:20:21.446Z,0.85
2023-04-12T11:22:50.137Z,1.65
2023-04-12T11:25:18.140Z,0.60
2023-04-12T11:27:52.155Z,1.33
2023-04-12T11:30:20.342Z,0.65
2023-04-12T11:32:47.723Z,0.15
2023-04-12T11:35:20.303Z,0.10
2023-04-12T11:37:47.190Z,1.20
2023-04-12T11:40:14.848Z,0.20
2023-04-12T11:42:41.921Z,0.95
2023-04-12T11:45:16.982Z,0.90
2023-04-12T11:47:46.151Z,1.27
2023-04-12T11:50:13.039Z,0.70
2023-04-12T11:52:41.178Z,1.17
2023-04-12T11:55:11.331Z,0.65
2023-04-12T11:57:38.947Z,0.17
2023-04-12T12:00:06.767Z,1.25
2023-04-12T12:02:41.185Z,0.32
2023-04-12T12:05:13.420Z,0.30
2023-04-12T12:07:40.437Z,1.25
2023-04-12T12:10:08.340Z,0.25
2023-04-12T12:12:35.574Z,0.15
2023-04-12T12:15:02.407Z,1.42
2023-04-12T12:17:29.122Z,0.85
2023-04-12T12:19:59.435Z,0.40
2023-04-12T12:22:26.167Z,0.10
2023-04-12T12:24:56.784Z,2.10
2023-04-12T12:27:38.198Z,1.52
2023-04-12T12:30:07.962Z,4.97
2023-04-12T12:32:37.331Z,0.10
2023-04-12T12:35:12.864Z,1.42
2023-04-12T12:37:50.942Z,0.10
2023-04-12T12:40:17.895Z,0.47
2023-04-12T12:42:55.162Z,0.10
2023-04-12T12:45:23.985Z,0.70
2023-04-12T12:47:53.498Z,0.28
2023-04-12T12:50:25.033Z,0.20
2023-04-12T12:52:52.194Z,0.10
2023-04-12T12:55:19.524Z,0.32
2023-04-12T12:57:58.430Z,0.90
2023-04-12T13:00:33.417Z,1.25
2023-04-12T13:03:00.414Z,0.28
2023-04-12T13:05:27.259Z,0.25
2023-04-12T13:07:53.942Z,0.30
2023-04-12T13:10:20.619Z,2.63
2023-04-12T13:12:47.315Z,2.47
2023-04-12T13:17:43.933Z,0.90
2023-04-12T13:20:10.931Z,0.20
2023-04-12T13:22:37.557Z,0.30
2023-04-12T13:25:04.506Z,1.42
2023-04-12T13:27:31.076Z,0.82
2023-04-12T13:29:57.875Z,0.75
2023-04-12T13:32:24.694Z,1.60
2023-04-12T13:34:51.563Z,1.50
2023-04-12T13:37:18.352Z,0.30
2023-04-12T13:39:44.940Z,0.98
2023-04-12T13:42:11.824Z,0.80
2023-04-12T13:44:38.493Z,2.05
2023-04-12T13:47:05.233Z,2.92
2023-04-12T13:49:31.975Z,1.90
2023-04-12T13:51:58.708Z,0.10
2023-04-12T13:54:25.590Z,2.60
2023-04-12T13:56:52.133Z,0.30
2023-04-12T13:59:20.520Z,1.60
2023-04-12T14:01:47.488Z,0.40
2023-04-12T14:04:14.457Z,0.40
2023-04-12T14:06:41.185Z,1.45
2023-04-12T14:09:07.792Z,0.45
2023-04-12T14:11:48.047Z,2.88
2023-04-12T14:14:16.683Z,0.60
2023-04-12T14:16:44.804Z,1.40
2023-04-12T14:19:11.467Z,3.80
2023-04-12T14:21:38.331Z,1.55
2023-04-12T14:24:05.086Z,0.45
2023-04-12T14:26:32.312Z,0.22
2023-04-12T14:28:59.193Z,0.38
2023-04-12T14:31:26.252Z,0.20
2023-04-12T14:33:53.685Z,1.13
2023-04-12T14:36:21.005Z,0.20
2023-04-12T14:38:47.706Z,1.05
2023-04-12T14:41:14.318Z,2.58
2023-04-12T14:43:41.017Z,1.30
2023-04-12T14:46:08.785Z,0.20
2023-04-12T14:48:35.422Z,0.90
2023-04-12T14:51:03.051Z,0.50
2023-04-12T14:53:30.701Z,2.53
2023-04-12T14:55:57.441Z,0.20
2023-04-12T14:58:24.132Z,1.75
2023-04-12T15:00:50.743Z,0.10
2023-04-12T15:03:17.710Z,0.10
2023-04-12T15:05:44.555Z,0.38
2023-04-12T15:08:11.853Z,1.63
2023-04-12T15:10:41.013Z,1.08
2023-04-12T15:13:07.959Z,0.80
2023-04-12T15:15:34.604Z,0.25
2023-04-12T15:18:03.281Z,2.70
2023-04-12T15:20:29.979Z,0.98
2023-04-12T15:22:56.705Z,0.60
2023-04-12T15:25:23.408Z,0.10
2023-04-12T15:27:50.419Z,1.02
2023-04-12T15:30:18.442Z,0.10
2023-04-12T15:32:46.319Z,0.70
2023-04-12T15:37:42.740Z,1.92
2023-04-12T15:40:13.758Z,1.45
2023-04-12T15:42:42.835Z,1.40
2023-04-12T15:45:10.782Z,0.50
2023-04-12T15:47:37.863Z,0.10
2023-04-12T15:50:05.060Z,1.10
2023-04-12T15:52:31.811Z,3.10
2023-04-12T15:54:58.576Z,0.63
2023-04-12T15:57:26.842Z,0.30
2023-04-12T15:59:55.358Z,0.22
2023-04-12T16:02:22.347Z,0.38
2023-04-12T16:04:49.356Z,0.20
2023-04-12T16:07:19.989Z,0.20
2023-04-12T16:09:48.274Z,1.35
2023-04-12T16:12:15.553Z,0.55
2023-04-12T16:14:42.320Z,1.10
2023-04-12T16:17:08.969Z,2.45
2023-04-12T16:19:36.009Z,0.45
2023-04-12T16:22:03.600Z,0.55
2023-04-12T16:24:30.315Z,0.43
2023-04-12T16:26:57.634Z,1.85
2023-04-12T16:29:24.557Z,2.15
2023-04-12T16:31:52.409Z,0.35
2023-04-12T16:34:22.130Z,0.30
2023-04-12T16:36:49.266Z,0.30
2023-04-12T16:39:17.010Z,1.63
2023-04-12T16:41:46.987Z,1.60
2023-04-12T16:44:20.224Z,1.95
2023-04-12T16:46:48.104Z,3.17
2023-04-12T16:49:15.122Z,0.35
2023-04-12T16:51:42.334Z,0.70
2023-04-12T16:54:08.989Z,1.73
2023-04-12T16:56:36.306Z,2.70
2023-04-12T16:59:04.724Z,2.15
2023-04-12T17:01:32.309Z,2.90
2023-04-12T17:04:00.742Z,0.80
2023-04-12T17:06:28.126Z,0.55
2023-04-12T17:08:54.756Z,1.83
2023-04-12T17:11:22.317Z,0.88
2023-04-12T17:13:50.640Z,1.88
2023-04-12T17:16:17.571Z,0.90
2023-04-12T17:18:44.630Z,1.42
2023-04-12T17:21:11.299Z,1.25
2023-04-12T17:23:38.850Z,1.60
2023-04-12T17:26:08.401Z,2.05
2023-04-12T17:28:36.118Z,2.15
2023-04-12T17:31:02.888Z,3.10
2023-04-12T17:33:29.563Z,0.73
2023-04-12T17:35:56.321Z,2.00
2023-04-12T17:38:22.862Z,2.58
2023-04-12T17:40:49.967Z,1.85
2023-04-12T17:43:17.637Z,4.50
2023-04-12T17:45:44.244Z,6.75
2023-04-12T17:48:14.504Z,2.03
2023-04-12T17:50:45.967Z,3.45
2023-04-12T17:53:12.937Z,4.22
2023-04-12T17:55:39.976Z,1.05
2023-04-12T17:58:06.638Z,3.90
2023-04-12T18:00:33.352Z,0.82
2023-04-12T18:03:00.046Z,1.67
2023-04-12T18:05:26.775Z,2.53
2023-04-12T18:07:53.448Z,2.50
2023-04-12T18:10:21.692Z,1.10
2023-04-12T18:12:48.569Z,4.00
2023-04-12T18:15:15.201Z,0.88
2023-04-12T18:17:42.180Z,1.38
2023-04-12T18:20:12.154Z,0.68
2023-04-12T18:22:39.104Z,0.30
2023-04-12T18:25:10.265Z,1.85
2023-04-12T18:27:37.043Z,1.10
2023-04-12T18:30:05.127Z,1.77
2023-04-12T18:32:31.815Z,0.98
2023-04-12T18:34:58.569Z,3.05
2023-04-12T18:37:25.287Z,0.60
2023-04-12T18:39:53.462Z,2.00
2023-04-12T18:42:20.244Z,2.35
2023-04-12T18:44:46.838Z,1.70
2023-04-12T18:47:13.588Z,2.58
2023-04-12T18:49:40.254Z,0.68
2023-04-12T18:52:07.227Z,2.00
2023-04-12T18:54:34.070Z,1.10
2023-04-12T18:57:02.002Z,10.75
2023-04-12T18:59:29.583Z,5.15
2023-04-12T19:01:56.814Z,0.73
2023-04-12T19:04:23.477Z,1.60
2023-04-12T19:06:50.061Z,35.33
2023-04-12T19:09:16.908Z,5.10
2023-04-12T19:11:43.573Z,5.95
2023-04-12T19:14:10.344Z,7.38
2023-04-12T19:16:37.814Z,2.08
2023-04-12T19:19:04.653Z,7.05
2023-04-12T19:21:31.952Z,5.95
2023-04-12T19:23:59.179Z,7.28
2023-04-12T19:26:28.800Z,6.85
2023-04-12T19:28:58.348Z,5.72
2023-04-12T19:31:25.320Z,5.38
2023-04-12T19:33:54.602Z,2.58
2023-04-12T19:36:23.163Z,3.65
2023-04-12T19:38:50.533Z,0.47
2023-04-12T19:41:18.029Z,4.15
2023-04-12T19:43:44.712Z,2.72
2023-04-12T19:46:11.866Z,4.90
2023-04-12T19:48:38.836Z,6.03
2023-04-12T19:51:06.000Z,18.13
2023-04-12T19:53:33.389Z,5.22
2023-04-12T19:56:00.874Z,6.53
2023-04-12T19:58:27.512Z,1.85
2023-04-12T20:00:55.049Z,1.23
2023-04-12T20:03:23.483Z,4.22
2023-04-12T20:05:50.206Z,2.05
2023-04-12T20:08:17.299Z,3.28
2023-04-12T20:10:44.022Z,0.57
2023-04-12T20:13:15.309Z,2.15
2023-04-12T20:15:44.981Z,9.27
2023-04-12T20:18:13.465Z,3.75
2023-04-12T20:20:44.147Z,2.75
2023-04-12T20:23:12.377Z,1.77
2023-04-12T20:25:41.749Z,1.50
2023-04-12T20:28:09.221Z,7.93
2023-04-12T20:30:36.772Z,3.78
2023-04-12T20:33:04.182Z,4.03
2023-04-12T20:35:30.983Z,1.88
2023-04-12T20:37:58.169Z,0.70
2023-04-12T20:40:27.195Z,0.90
2023-04-12T20:42:54.030Z,0.90
2023-04-12T20:45:22.284Z,2.15
2023-04-12T20:47:49.371Z,0.55
2023-04-12T20:50:17.649Z,1.48
2023-04-12T20:52:45.539Z,1.17
2023-04-12T20:55:14.401Z,0.85
2023-04-12T20:57:41.936Z,1.65
2023-04-12T21:00:15.655Z,1.80
2023-04-12T21:05:27.427Z,1.15
2023-04-12T21:07:54.837Z,0.50
2023-04-12T21:10:22.370Z,9.73
2023-04-12T21:12:50.120Z,1.35
2023-04-12T21:15:21.878Z,1.77
2023-04-12T21:17:49.766Z,4.05
2023-04-12T21:20:16.857Z,2.15
2023-04-12T21:22:45.085Z,3.13
2023-04-12T21:25:15.076Z,0.90
2023-04-12T21:27:42.772Z,3.00
2023-04-12T21:30:13.685Z,0.75
2023-04-12T21:32:41.582Z,0.50
2023-04-12T21:35:09.084Z,1.95
2023-04-12T21:37:38.946Z,2.25
2023-04-12T21:40:10.971Z,0.75
2023-04-12T21:42:38.559Z,1.30
2023-04-12T21:45:06.553Z,0.30
2023-04-12T21:47:33.283Z,1.48
2023-04-12T21:50:00.288Z,2.40
2023-04-12T21:52:26.929Z,3.63
2023-04-12T21:54:54.864Z,0.40
2023-04-12T21:57:22.547Z,1.00
2023-04-12T21:59:49.170Z,0.30
2023-04-12T22:02:16.088Z,1.60
2023-04-12T22:04:43.519Z,1.38
2023-04-12T22:07:12.741Z,0.98
2023-04-12T22:09:40.346Z,2.17
2023-04-12T22:12:07.914Z,0.40
2023-04-12T22:14:35.868Z,3.55
2023-04-12T22:17:02.764Z,1.95
2023-04-12T22:19:29.709Z,1.27
2023-04-12T22:21:56.352Z,12.90
2023-04-12T22:24:23.773Z,0.93
2023-04-12T22:26:50.610Z,0.30
2023-04-12T22:29:17.785Z,0.30
2023-04-12T22:31:47.253Z,1.52
2023-04-12T22:34:14.073Z,2.13
2023-04-12T22:36:42.370Z,1.40
2023-04-12T22:39:15.562Z,0.98
2023-04-12T22:41:42.332Z,1.17
2023-04-12T22:44:10.633Z,0.25
2023-04-12T22:46:39.210Z,0.95
2023-04-12T22:49:06.075Z,0.40
2023-04-12T22:51:33.341Z,1.75
2023-04-12T22:54:00.174Z,2.40
2023-04-12T22:56:27.298Z,4.03
2023-04-12T22:58:54.154Z,0.80
2023-04-12T23:01:21.620Z,1.67
2023-04-12T23:03:48.753Z,0.40
2023-04-12T23:06:15.417Z,0.40
2023-04-12T23:08:43.707Z,0.47
2023-04-12T23:11:11.176Z,0.98
2023-04-12T23:13:38.158Z,1.33
2023-04-12T23:16:08.179Z,0.77
2023-04-12T23:18:34.972Z,0.30
2023-04-12T23:21:04.239Z,1.05
2023-04-12T23:23:30.908Z,2.15
2023-04-12T23:25:57.525Z,0.30
2023-04-12T23:28:25.871Z,1.20
2023-04-12T23:30:52.542Z,0.73
2023-04-12T23:33:21.030Z,1.98
2023-04-12T23:35:56.582Z,2.42
2023-04-12T23:38:24.452Z,1.50
2023-04-12T23:40:54.314Z,1.50
2023-04-12T23:43:22.167Z,1.02
2023-04-12T23:45:49.294Z,2.97
2023-04-12T23:48:16.841Z,5.75
2023-04-12T23:50:45.980Z,2.72
2023-04-12T23:53:13.233Z,1.35
2023-04-12T23:55:42.472Z,1.13
2023-04-12T23:58:10.055Z,1.17
